Time;durP1;ratioP1;P1;durP2;ratioP2;P2;SDS_P1;SDS_P2;PMS_P1;PMS_P2;Temp;Humidity;BMP_temperature;BMP_pressure;BME280_temperature;BME280_humidity;BME280_pressure;Samples;Min_cycle;Max_cycle;Signal;HPM_P1;HPM_P2
2021/07/10 00:00:33;;;;;;;8.50;6.40;;;16.50;99.90;;;;;;4992104;28;20863;-78
2021/07/10 00:02:59;;;;;;;8.53;6.93;;;16.40;99.90;;;;;;4991918;28;20763;-79
2021/07/10 00:05:24;;;;;;;9.37;7.83;;;16.30;99.90;;;;;;4993429;28;20469;-79
2021/07/10 00:07:50;;;;;;;10.70;7.73;;;16.30;99.90;;;;;;4993393;28;20502;-79
2021/07/10 00:10:17;;;;;;;9.30;7.40;;;16.30;99.90;;;;;;4992243;28;20178;-79
2021/07/10 00:12:43;;;;;;;7.27;6.57;;;16.10;99.90;;;;;;4992101;28;20810;-79
2021/07/10 00:15:12;;;;;;;10.47;7.63;;;16.00;99.90;;;;;;4992027;28;20425;-79
2021/07/10 00:17:38;;;;;;;7.70;6.70;;;;;;;;;;4993678;28;20389;-79
2021/07/10 00:20:05;;;;;;;8.60;7.67;;;;;;;;;;4993592;28;20428;-79
2021/07/10 00:22:34;;;;;;;8.57;7.77;;;;;;;;;;4993340;28;20462;-79
2021/07/10 00:25:00;;;;;;;8.80;8.10;;;;;;;;;;4995585;28;20470;-79
2021/07/10 00:27:27;;;;;;;8.27;7.57;;;;;;;;;;4997075;28;20447;-79
2021/07/10 00:29:53;;;;;;;9.43;7.53;;;;;;;;;;4995698;28;20414;-79
2021/07/10 00:32:19;;;;;;;9.53;8.53;;;;;;;;;;4995845;28;20425;-79
2021/07/10 00:34:45;;;;;;;11.43;8.50;;;;;;;;;;4996274;28;20436;-79
2021/07/10 00:37:11;;;;;;;10.07;8.03;;;;;;;;;;4996703;28;20511;-79
2021/07/10 00:39:37;;;;;;;7.93;7.10;;;;;;;;;;4996773;28;20842;-79
2021/07/10 00:42:03;;;;;;;8.57;7.77;;;;;;;;;;4996711;28;20777;-78
2021/07/10 00:44:29;;;;;;;8.70;7.10;;;;;;;;;;4996265;28;20481;-79
2021/07/10 00:46:55;;;;;;;8.00;7.20;;;;;;;;;;4995340;28;20426;-78
2021/07/10 00:49:21;;;;;;;8.00;7.30;;;;;;;;;;4996447;28;20419;-78
2021/07/10 00:51:47;;;;;;;9.43;8.13;;;;;;;;;;4996602;28;20461;-79
2021/07/10 00:54:13;;;;;;;9.60;7.83;;;;;;;;;;4995969;28;20506;-79
2021/07/10 00:56:41;;;;;;;13.07;8.90;;;;;;;;;;4996403;28;20904;-79
2021/07/10 00:59:07;;;;;;;10.13;9.13;;;;;;;;;;4996099;28;20421;-79
2021/07/10 01:01:34;;;;;;;10.20;8.83;;;;;;;;;;4996394;28;20426;-79
2021/07/10 01:04:00;;;;;;;8.83;7.90;;;;;;;;;;4994643;28;20475;-78
2021/07/10 01:06:27;;;;;;;8.37;7.57;;;;;;;;;;4996051;28;20430;-79
2021/07/10 01:08:54;;;;;;;8.90;8.00;;;;;;;;;;4996102;28;20407;-78
2021/07/10 01:11:22;;;;;;;10.30;8.30;;;15.00;99.90;;;;;;4995978;28;20521;-79
2021/07/10 01:13:49;;;;;;;8.67;7.87;;;15.10;99.90;;;;;;4994570;28;20500;-79
2021/07/10 01:16:16;;;;;;;9.03;8.03;;;;;;;;;;4996128;28;20481;-78
2021/07/10 01:18:44;;;;;;;11.17;7.93;;;14.80;99.90;;;;;;4996149;28;20796;-79
2021/07/10 01:21:11;;;;;;;11.03;9.43;;;;;;;;;;4994759;28;20829;-79
2021/07/10 01:23:38;;;;;;;9.50;8.50;;;;;;;;;;4995500;28;20505;-79
2021/07/10 01:26:04;;;;;;;12.17;8.37;;;14.90;99.90;;;;;;4995794;28;20448;-79
2021/07/10 01:28:30;;;;;;;8.90;7.57;;;14.90;99.90;;;;;;4995865;28;20931;-78
2021/07/10 01:30:55;;;;;;;9.57;8.57;;;14.90;99.90;;;;;;4994606;28;20176;-78
2021/07/10 01:33:21;;;;;;;11.03;8.13;;;14.80;99.90;;;;;;4994143;28;20437;-79
2021/07/10 01:35:47;;;;;;;12.30;8.37;;;14.80;99.90;;;;;;4993662;28;20271;-79
2021/07/10 01:38:14;;;;;;;10.60;9.50;;;14.70;99.90;;;;;;4995828;28;20702;-78
2021/07/10 01:40:40;;;;;;;10.13;9.03;;;14.70;99.90;;;;;;4994575;28;20182;-79
2021/07/10 01:43:06;;;;;;;16.27;13.57;;;14.60;99.90;;;;;;4995244;28;20506;-78
2021/07/10 01:45:33;;;;;;;16.60;13.80;;;14.60;99.90;;;;;;4995387;28;20750;-79
2021/07/10 01:47:58;;;;;;;24.10;14.97;;;14.60;99.90;;;;;;4994384;28;20794;-79
2021/07/10 01:50:24;;;;;;;17.63;12.40;;;14.60;99.90;;;;;;4994295;28;20397;-78
2021/07/10 01:52:50;;;;;;;16.83;12.03;;;14.60;99.90;;;;;;4994985;28;20258;-79
2021/07/10 01:55:17;;;;;;;12.30;11.00;;;14.50;99.90;;;;;;4993949;28;20435;-79
2021/07/10 01:57:51;;;;;;;10.50;9.43;;;14.60;99.90;;;;;;4993949;28;20441;-79
2021/07/10 02:00:25;;;;;;;10.33;8.47;;;14.50;99.90;;;;;;4995235;28;20414;-79
2021/07/10 02:02:51;;;;;;;10.70;9.60;;;14.50;99.90;;;;;;4995008;28;20827;-78
2021/07/10 02:05:18;;;;;;;10.70;8.57;;;14.50;99.90;;;;;;4993519;28;20565;-78
2021/07/10 02:07:45;;;;;;;10.07;9.07;;;14.40;99.90;;;;;;4993784;28;20430;-78
2021/07/10 02:10:12;;;;;;;9.77;8.80;;;14.30;99.90;;;;;;4995114;28;20421;-78
2021/07/10 02:12:40;;;;;;;13.30;9.70;;;14.30;99.90;;;;;;4994958;28;20502;-79
2021/07/10 02:15:07;;;;;;;13.30;10.40;;;14.30;99.90;;;;;;4994626;28;20438;-78
2021/07/10 02:17:34;;;;;;;13.63;10.80;;;14.20;99.90;;;;;;4993504;28;20951;-79
2021/07/10 02:20:00;;;;;;;13.20;9.50;;;14.10;99.90;;;;;;4994782;28;20843;-79
2021/07/10 02:22:25;;;;;;;14.30;8.97;;;14.00;99.90;;;;;;4994696;28;20418;-79
2021/07/10 02:24:51;;;;;;;15.43;9.53;;;14.00;99.90;;;;;;4994283;28;20230;-79
2021/07/10 02:27:17;;;;;;;11.97;9.10;;;14.00;99.90;;;;;;4994944;28;20218;-78
2021/07/10 02:29:43;;;;;;;11.27;10.00;;;14.00;99.90;;;;;;4994785;28;20199;-79
2021/07/10 02:32:09;;;;;;;12.43;9.23;;;14.00;99.90;;;;;;4993629;28;20423;-78
2021/07/10 02:34:35;;;;;;;11.40;9.20;;;14.00;99.90;;;;;;4994174;28;20439;-79
2021/07/10 02:37:00;;;;;;;11.23;9.80;;;13.90;99.90;;;;;;4994536;28;20186;-79
2021/07/10 02:39:26;;;;;;;14.93;8.47;;;13.90;99.90;;;;;;4993351;28;20179;-79
2021/07/10 02:41:51;;;;;;;12.67;8.50;;;13.80;99.90;;;;;;4993232;28;20176;-79
2021/07/10 02:44:17;;;;;;;10.70;9.57;;;13.80;99.90;;;;;;4992821;28;20302;-79
2021/07/10 02:46:44;;;;;;;10.53;8.73;;;;;;;;;;4994215;28;20695;-79
2021/07/10 02:49:13;;;;;;;10.30;9.30;;;13.70;99.90;;;;;;4994352;28;20181;-79
2021/07/10 02:51:41;;;;;;;9.80;8.77;;;13.70;99.90;;;;;;4993089;28;20415;-79
2021/07/10 02:54:07;;;;;;;11.00;8.83;;;13.90;99.90;;;;;;4992586;28;20443;-79
2021/07/10 02:56:33;;;;;;;19.53;10.70;;;13.70;99.90;;;;;;4994259;28;20411;-78
2021/07/10 02:58:58;;;;;;;12.57;9.23;;;13.90;99.90;;;;;;4977071;28;20715;-79
2021/07/10 03:01:24;;;;;;;17.60;9.80;;;13.70;99.90;;;;;;4992867;28;20183;-78
2021/07/10 03:03:50;;;;;;;11.03;9.93;;;13.60;99.90;;;;;;4976071;28;20279;-79
2021/07/10 03:06:16;;;;;;;15.80;9.93;;;13.60;99.90;;;;;;4992614;28;20250;-78
2021/07/10 03:08:42;;;;;;;12.30;9.70;;;13.70;99.90;;;;;;4994002;28;20863;-79
2021/07/10 03:11:09;;;;;;;11.53;10.40;;;13.50;99.90;;;;;;4994002;28;20210;-79
2021/07/10 03:13:35;;;;;;;11.07;9.90;;;13.70;99.90;;;;;;4992502;28;20422;-78
2021/07/10 03:16:02;;;;;;;16.47;10.40;;;13.70;99.90;;;;;;4993939;28;20805;-79
2021/07/10 03:18:27;;;;;;;15.73;9.63;;;13.60;99.90;;;;;;4992752;28;20775;-79
2021/07/10 03:20:53;;;;;;;11.83;9.67;;;13.60;99.90;;;;;;4992709;28;20433;-78
2021/07/10 03:23:19;;;;;;;15.20;10.00;;;13.60;99.90;;;;;;4993618;28;20183;-80
2021/07/10 03:25:47;;;;;;;16.53;11.20;;;13.60;99.90;;;;;;4993879;28;20225;-78
2021/07/10 03:28:13;;;;;;;15.77;10.43;;;13.60;99.90;;;;;;4993625;28;20502;-78
2021/07/10 03:30:39;;;;;;;11.43;10.07;;;13.60;99.90;;;;;;4993875;28;20446;-79
2021/07/10 03:33:05;;;;;;;12.70;11.03;;;13.60;99.90;;;;;;4993489;28;20422;-78
2021/07/10 03:35:30;;;;;;;14.50;9.90;;;13.60;99.90;;;;;;4993621;28;20426;-78
2021/07/10 03:37:57;;;;;;;15.37;10.97;;;13.60;99.90;;;;;;4993658;28;20411;-78
2021/07/10 03:40:26;;;;;;;10.77;9.63;;;13.60;99.90;;;;;;4993760;28;20179;-78
2021/07/10 03:42:53;;;;;;;11.50;10.13;;;13.50;99.90;;;;;;4993654;28;20775;-78
2021/07/10 03:45:18;;;;;;;10.93;9.83;;;13.60;99.90;;;;;;4993808;28;20469;-79
2021/07/10 03:47:44;;;;;;;14.53;10.90;;;13.60;99.90;;;;;;4993575;28;20426;-80
2021/07/10 03:50:13;;;;;;;12.90;9.50;;;13.60;99.90;;;;;;4993589;28;20554;-79
2021/07/10 03:52:39;;;;;;;16.80;10.17;;;13.60;99.90;;;;;;4993513;28;20450;-78
2021/07/10 03:55:07;;;;;;;13.30;10.53;;;13.60;99.90;;;;;;4992271;28;20465;-77
2021/07/10 03:57:34;;;;;;;13.37;10.40;;;13.60;99.90;;;;;;4993774;28;20425;-79
2021/07/10 04:00:00;;;;;;;14.20;10.90;;;13.60;99.90;;;;;;4997358;28;20425;-78
2021/07/10 04:02:25;;;;;;;19.20;10.80;;;13.50;99.90;;;;;;4997143;28;20422;-78
2021/07/10 04:04:51;;;;;;;14.97;11.00;;;13.70;99.90;;;;;;4996657;28;20628;-77
2021/07/10 04:07:18;;;;;;;14.00;10.90;;;13.70;99.90;;;;;;4997214;28;20175;-77
2021/07/10 04:09:43;;;;;;;16.90;11.63;;;13.70;99.90;;;;;;4997155;28;20577;-77
2021/07/10 04:12:09;;;;;;;13.43;11.60;;;13.80;99.90;;;;;;4995998;28;20434;-77
2021/07/10 04:14:36;;;;;;;17.57;13.53;;;13.80;99.90;;;;;;4995483;28;20203;-77
2021/07/10 04:17:03;;;;;;;17.53;12.63;;;13.90;99.90;;;;;;4997170;28;20184;-78
2021/07/10 04:19:29;;;;;;;20.73;13.83;;;14.00;99.90;;;;;;4997462;28;20505;-78
2021/07/10 04:21:55;;;;;;;15.33;13.17;;;14.10;99.90;;;;;;4997033;28;20514;-77
2021/07/10 04:24:21;;;;;;;18.50;12.80;;;14.10;99.90;;;;;;4996490;28;20219;-78
2021/07/10 04:26:46;;;;;;;20.43;14.50;;;14.20;99.90;;;;;;4996980;28;20590;-77
2021/07/10 04:29:12;;;;;;;19.03;12.67;;;14.40;99.90;;;;;;4995690;28;20275;-77
2021/07/10 04:31:37;;;;;;;19.70;13.90;;;14.40;99.90;;;;;;4997008;28;20180;-77
2021/07/10 04:34:03;;;;;;;15.60;11.17;;;14.50;99.90;;;;;;4978979;28;20302;-78
2021/07/10 04:36:29;;;;;;;17.97;13.10;;;14.60;99.90;;;;;;4996773;28;20183;-77
2021/07/10 04:38:54;;;;;;;17.37;12.13;;;14.70;99.90;;;;;;4996712;28;20187;-78
2021/07/10 04:41:20;;;;;;;13.90;12.40;;;14.80;99.90;;;;;;4996820;28;20191;-77
2021/07/10 04:43:51;;;;;;;19.00;13.40;;;14.90;99.90;;;;;;4996293;28;20622;-78
2021/07/10 04:46:18;;;;;;;20.10;12.50;;;15.00;99.90;;;;;;4996876;28;20264;-77
2021/07/10 04:48:43;;;;;;;16.60;13.37;;;15.00;99.90;;;;;;4996433;28;20414;-78
2021/07/10 04:51:09;;;;;;;18.40;12.30;;;15.10;99.90;;;;;;4996710;28;20172;-78
2021/07/10 04:53:35;;;;;;;18.77;13.03;;;15.10;99.90;;;;;;4996434;28;20218;-77
2021/07/10 04:56:01;;;;;;;14.07;11.70;;;15.10;99.90;;;;;;4996496;28;20192;-77
2021/07/10 04:58:29;;;;;;;13.80;12.40;;;15.20;99.90;;;;;;4995133;28;20576;-77
2021/07/10 05:00:58;;;;;;;13.33;11.07;;;15.20;99.90;;;;;;4996202;28;20180;-77
2021/07/10 05:03:23;;;;;;;13.53;11.67;;;15.30;99.90;;;;;;4995857;28;20521;-77
2021/07/10 05:05:49;;;;;;;16.53;11.80;;;15.30;99.90;;;;;;4994853;28;20936;-78
2021/07/10 05:08:15;;;;;;;17.00;12.20;;;15.30;99.90;;;;;;4996086;28;20208;-77
2021/07/10 05:10:40;;;;;;;12.27;10.57;;;15.40;99.90;;;;;;4994744;28;20659;-77
2021/07/10 05:13:08;;;;;;;16.10;10.30;;;15.40;99.90;;;;;;4994504;28;20186;-77
2021/07/10 05:15:36;;;;;;;11.93;9.90;;;15.40;99.90;;;;;;4996081;28;20625;-76
2021/07/10 05:18:03;;;;;;;11.70;10.30;;;15.50;99.90;;;;;;4996094;28;20792;-77
2021/07/10 05:20:29;;;;;;;11.27;10.07;;;15.60;99.90;;;;;;4996230;28;20425;-77
2021/07/10 05:22:54;;;;;;;10.37;9.37;;;15.70;99.90;;;;;;4994451;28;20414;-76
2021/07/10 05:25:20;;;;;;;12.53;10.03;;;15.70;99.90;;;;;;4994600;28;20631;-77
2021/07/10 05:27:45;;;;;;;12.70;9.00;;;15.60;99.90;;;;;;4995842;28;20183;-76
2021/07/10 05:33:42;;;;;;;18.60;9.80;;;15.80;99.90;;;;;;4978103;28;20189;-77
2021/07/10 05:36:07;;;;;;;14.57;9.27;;;16.00;99.90;;;;;;4995765;28;20399;-77
2021/07/10 05:42:08;;;;;;;10.37;9.07;;;16.10;99.90;;;;;;4989295;28;20670;-77
2021/07/10 05:44:34;;;;;;;12.13;9.87;;;16.30;99.90;;;;;;4995170;28;20825;-77
2021/07/10 05:46:59;;;;;;;15.47;8.90;;;16.30;99.90;;;;;;4995484;28;20477;-78
2021/07/10 05:49:25;;;;;;;9.97;8.83;;;16.30;99.90;;;;;;4995513;28;20632;-76
2021/07/10 05:51:51;;;;;;;10.67;8.23;;;16.30;99.90;;;;;;4995480;28;20183;-77
2021/07/10 05:54:16;;;;;;;11.20;9.60;;;16.40;99.90;;;;;;4993967;28;20206;-77
2021/07/10 05:56:43;;;;;;;11.00;8.90;;;16.50;99.90;;;;;;4994195;28;20259;-77
2021/07/10 05:59:08;;;;;;;11.53;8.53;;;16.50;99.90;;;;;;4995080;28;20533;-77
2021/07/10 06:01:34;;;;;;;16.93;8.80;;;16.50;99.90;;;;;;4995186;28;20410;-77
2021/07/10 06:04:01;;;;;;;12.90;7.90;;;16.60;99.90;;;;;;4994692;28;20253;-76
2021/07/10 06:09:13;;;;;;;12.67;8.30;;;;;;;;;;4994504;28;20397;-77
2021/07/10 06:11:39;;;;;;;13.97;8.87;;;;;;;;;;4993714;28;20485;-76
2021/07/10 06:14:08;;;;;;;12.13;8.60;;;17.10;99.90;;;;;;4994764;28;20434;-77
2021/07/10 06:16:34;;;;;;;10.77;7.23;;;;;;;;;;4994826;28;20427;-76
2021/07/10 06:19:00;;;;;;;11.93;8.10;;;;;;;;;;4994876;28;20457;-77
2021/07/10 06:21:27;;;;;;;14.77;9.03;;;;;;;;;;4992824;28;20420;-77
2021/07/10 06:23:53;;;;;;;9.73;7.97;;;;;;;;;;4994197;28;20437;-77
2021/07/10 06:26:20;;;;;;;11.63;7.30;;;;;;;;;;4994970;28;20385;-77
2021/07/10 06:28:48;;;;;;;10.00;7.47;;;;;;;;;;4994490;28;20411;-76
2021/07/10 06:31:13;;;;;;;10.53;8.00;;;;;;;;;;4993397;28;20521;-78
2021/07/10 06:33:39;;;;;;;11.97;8.37;;;;;;;;;;4994176;28;20482;-77
2021/07/10 06:36:05;;;;;;;12.23;8.20;;;;;;;;;;4994467;28;20418;-77
2021/07/10 06:38:31;;;;;;;11.63;7.67;;;;;;;;;;4994545;28;20412;-77
2021/07/10 06:40:57;;;;;;;8.40;6.73;;;;;;;;;;4994569;28;20418;-77
2021/07/10 06:43:23;;;;;;;14.17;8.20;;;;;;;;;;4993916;28;20389;-77
2021/07/10 06:45:49;;;;;;;10.70;8.70;;;;;;;;;;4994241;28;20980;-77
2021/07/10 06:48:15;;;;;;;9.70;6.70;;;;;;;;;;4994390;28;20446;-77
2021/07/10 06:50:42;;;;;;;13.60;7.80;;;;;;;;;;4994370;28;20502;-77
2021/07/10 06:53:08;;;;;;;10.27;6.97;;;;;;;;;;4992647;28;20452;-77
2021/07/10 06:55:34;;;;;;;8.23;6.90;;;;;;;;;;4994100;28;20405;-77
2021/07/10 06:58:00;;;;;;;8.80;6.60;;;;;;;;;;4994056;28;20750;-77
2021/07/10 07:00:26;;;;;;;10.80;7.10;;;;;;;;;;4994419;28;20419;-77
2021/07/10 07:02:52;;;;;;;9.70;6.67;;;;;;;;;;4993890;28;20473;-77
2021/07/10 07:05:18;;;;;;;14.20;6.93;;;;;;;;;;4993895;28;20448;-77
2021/07/10 07:07:44;;;;;;;10.00;6.57;;;;;;;;;;4993792;28;20500;-77
2021/07/10 07:10:11;;;;;;;13.10;5.93;;;;;;;;;;4992526;28;21017;-78
2021/07/10 07:12:37;;;;;;;8.37;5.80;;;;;;;;;;4992563;28;20528;-77
2021/07/10 07:15:04;;;;;;;8.20;5.70;;;;;;;;;;4992395;28;20435;-77
2021/07/10 07:17:30;;;;;;;12.90;6.60;;;;;;;;;;4993777;28;20422;-78
2021/07/10 07:19:56;;;;;;;10.57;5.10;;;;;;;;;;4993659;28;20430;-77
2021/07/10 07:22:22;;;;;;;8.20;5.17;;;;;;;;;;4993799;28;20393;-77
2021/07/10 07:24:48;;;;;;;8.57;5.73;;;;;;;;;;4993293;28;20961;-77
2021/07/10 07:27:14;;;;;;;9.40;5.43;;;;;;;;;;4993833;28;20385;-77
2021/07/10 07:29:50;;;;;;;8.40;5.40;;;;;;;;;;4993700;28;20392;-78
2021/07/10 07:32:16;;;;;;;6.40;5.77;;;;;;;;;;4992508;28;20468;-78
2021/07/10 07:34:47;;;;;;;6.93;5.60;;;;;;;;;;4997061;28;20470;-78
2021/07/10 07:37:15;;;;;;;12.90;5.93;;;;;;;;;;4996791;28;20441;-77
2021/07/10 07:39:41;;;;;;;11.03;6.50;;;;;;;;;;4997682;28;20953;-78
2021/07/10 07:42:07;;;;;;;10.33;5.90;;;;;;;;;;4997616;28;20476;-77
2021/07/10 07:44:34;;;;;;;8.13;5.30;;;;;;;;;;4996080;28;20906;-77
2021/07/10 07:47:00;;;;;;;6.83;5.80;;;;;;;;;;4996386;28;20453;-78
2021/07/10 07:49:26;;;;;;;5.90;5.30;;;;;;;;;;4997669;28;20414;-78
2021/07/10 07:51:53;;;;;;;8.27;6.13;;;;;;;;;;4996435;28;20498;-78
2021/07/10 07:54:20;;;;;;;8.87;5.50;;;;;;;;;;4997225;28;20836;-77
2021/07/10 07:56:47;;;;;;;6.20;5.60;;;;;;;;;;4996378;28;20938;-77
2021/07/10 07:59:13;;;;;;;7.27;5.90;;;;;;;;;;4997485;28;20426;-78
2021/07/10 08:01:39;;;;;;;8.47;6.10;;;;;;;;;;4997421;28;20464;-77
2021/07/10 08:04:06;;;;;;;9.77;5.80;;;;;;;;;;4996613;28;20985;-77
2021/07/10 08:06:33;;;;;;;6.57;6.00;;;;;;;;;;4995986;28;20521;-77
2021/07/10 08:09:00;;;;;;;6.33;5.60;;;;;;;;;;4997375;28;20781;-78
2021/07/10 08:11:26;;;;;;;6.87;5.07;;;;;;;;;;4997241;28;20407;-77
2021/07/10 08:13:52;;;;;;;7.23;6.40;;;;;;;;;;4996783;28;20416;-77
2021/07/10 08:16:18;;;;;;;8.33;5.43;;;;;;;;;;4996912;28;20973;-78
2021/07/10 08:18:45;;;;;;;6.50;5.93;;;;;;;;;;4997002;28;20414;-78
2021/07/10 08:21:11;;;;;;;7.50;6.20;;;;;;;;;;4995763;28;20477;-77
2021/07/10 08:23:37;;;;;;;6.83;5.70;;;;;;;;;;4996732;28;20411;-78
2021/07/10 08:26:03;;;;;;;7.93;6.30;;;;;;;;;;4995708;28;20446;-78
2021/07/10 08:28:29;;;;;;;6.80;6.17;;;;;;;;;;4996764;28;20450;-78
2021/07/10 08:30:55;;;;;;;9.73;6.30;;;;;;;;;;4996841;28;20421;-78
2021/07/10 08:33:22;;;;;;;8.43;6.03;;;;;;;;;;4996453;28;20433;-78
2021/07/10 08:35:49;;;;;;;7.73;6.17;;;;;;;;;;4995372;28;20438;-78
2021/07/10 08:38:17;;;;;;;7.13;5.07;;;;;;;;;;4996729;28;20456;-77
2021/07/10 08:40:44;;;;;;;5.90;5.30;;;;;;;;;;4996791;28;20418;-77
2021/07/10 08:43:10;;;;;;;11.63;5.80;;;;;;;;;;4996362;28;20406;-77
2021/07/10 08:45:36;;;;;;;6.57;5.20;;;;;;;;;;4996072;28;20525;-77
2021/07/10 08:48:04;;;;;;;6.10;5.50;;;23.80;99.90;;;;;;4996576;28;20446;-77
2021/07/10 08:50:30;;;;;;;7.00;6.23;;;23.90;99.90;;;;;;4995465;28;20784;-78
2021/07/10 08:52:55;;;;;;;5.97;5.30;;;24.20;99.90;;;;;;4995850;28;20830;-77
2021/07/10 08:55:21;;;;;;;8.20;5.10;;;24.20;99.90;;;;;;4996390;28;20470;-77
2021/07/10 08:57:47;;;;;;;6.43;5.43;;;24.50;99.90;;;;;;4979056;28;20187;-77
2021/07/10 09:00:35;;;;;;;7.70;6.07;;;24.30;99.90;;;;;;4994619;28;20440;-77
2021/07/10 09:03:01;;;;;;;9.73;5.90;;;24.50;99.90;;;;;;4994731;28;20194;-77
2021/07/10 09:09:41;;;;;;;4.43;4.03;;;25.10;99.90;;;;;;4974529;28;20614;-78
2021/07/10 09:12:07;;;;;;;5.37;4.87;;;24.80;99.90;;;;;;4958472;28;20447;-77
2021/07/10 09:14:45;;;;;;;5.57;4.70;;;;;;;;;;4994281;28;20537;-77
2021/07/10 09:17:19;;;;;;;5.33;4.93;;;24.80;99.90;;;;;;4995985;28;20229;-77
2021/07/10 09:20:23;;;;;;;6.80;4.50;;;24.60;99.90;;;;;;4994726;28;20438;-77
2021/07/10 09:22:49;;;;;;;6.40;5.07;;;;;;;;;;4995460;28;20425;-78
2021/07/10 09:25:27;;;;;;;6.43;5.60;;;25.10;99.90;;;;;;4994485;28;20502;-78
2021/07/10 09:27:54;;;;;;;5.63;5.13;;;25.30;99.90;;;;;;4994666;28;20902;-78
2021/07/10 09:30:40;;;;;;;5.47;4.97;;;25.20;99.90;;;;;;4996015;28;20778;-77
2021/07/10 09:33:38;;;;;;;5.87;4.53;;;25.50;99.90;;;;;;4994124;28;20427;-78
2021/07/10 09:36:04;;;;;;;5.20;4.70;;;25.60;99.90;;;;;;4976816;28;20457;-78
2021/07/10 09:38:34;;;;;;;5.13;4.50;;;25.80;99.90;;;;;;4995814;28;20427;-78
2021/07/10 09:41:09;;;;;;;4.37;3.97;;;26.00;99.90;;;;;;4995533;28;20311;-78
2021/07/10 09:43:37;;;;;;;4.27;3.90;;;25.70;99.90;;;;;;4994123;28;20461;-77
2021/07/10 09:46:05;;;;;;;4.73;4.23;;;25.70;99.90;;;;;;4995442;28;20545;-77
2021/07/10 09:48:37;;;;;;;4.47;4.10;;;25.50;99.90;;;;;;4995027;28;20427;-77
2021/07/10 09:51:38;;;;;;;7.90;4.73;;;25.90;99.90;;;;;;4995511;28;20415;-77
2021/07/10 09:54:08;;;;;;;4.53;4.10;;;26.00;99.90;;;;;;4973496;28;20457;-81
2021/07/10 09:56:39;;;;;;;4.97;4.57;;;26.20;99.90;;;;;;4990639;28;20906;-84
2021/07/10 09:59:23;;;;;;;5.93;4.40;;;25.70;99.90;;;;;;4995234;28;20429;-83
2021/07/10 10:01:50;;;;;;;5.77;5.07;;;25.80;99.90;;;;;;4995357;28;20423;-82
2021/07/10 10:04:24;;;;;;;6.20;4.37;;;25.80;99.90;;;;;;4994556;28;20864;-81
2021/07/10 10:06:51;;;;;;;4.57;4.27;;;25.60;99.90;;;;;;4995016;28;20422;-82
2021/07/10 10:09:20;;;;;;;6.87;4.40;;;25.70;99.90;;;;;;4994916;28;20951;-80
2021/07/10 10:11:48;;;;;;;4.23;3.83;;;25.60;99.90;;;;;;4994931;28;20411;-83
2021/07/10 10:14:16;;;;;;;4.73;3.93;;;;;;;;;;4977536;28;20446;-81
2021/07/10 10:16:46;;;;;;;4.33;3.93;;;25.40;99.90;;;;;;4995817;28;20421;-81
2021/07/10 10:19:14;;;;;;;5.93;4.07;;;25.20;99.90;;;;;;4994647;28;20423;-79
2021/07/10 10:21:41;;;;;;;9.23;5.10;;;25.10;99.90;;;;;;4994850;28;20446;-80
2021/07/10 10:24:07;;;;;;;7.77;5.00;;;24.50;99.90;;;;;;4994494;28;21017;-80
2021/07/10 10:26:34;;;;;;;5.70;4.70;;;24.20;99.90;;;;;;4994796;28;20423;-81
2021/07/10 10:29:00;;;;;;;5.20;4.70;;;23.90;99.90;;;;;;4993308;28;20480;-81
2021/07/10 10:31:26;;;;;;;5.83;4.10;;;24.40;99.90;;;;;;4994730;28;20787;-81
2021/07/10 10:33:52;;;;;;;5.97;4.27;;;;;;;;;;4992911;28;20350;-80
2021/07/10 10:36:25;;;;;;;8.83;5.03;;;24.50;99.90;;;;;;4994586;28;20828;-80
2021/07/10 10:38:51;;;;;;;4.90;4.50;;;24.50;99.90;;;;;;4993517;28;20477;-80
2021/07/10 10:41:18;;;;;;;5.30;4.80;;;24.80;99.90;;;;;;4993497;28;20415;-79
2021/07/10 10:43:47;;;;;;;5.40;4.90;;;24.70;99.90;;;;;;4993866;28;20453;-81
2021/07/10 10:46:19;;;;;;;5.50;5.00;;;24.80;99.90;;;;;;4992567;28;20466;-82
2021/07/10 10:48:45;;;;;;;9.67;4.97;;;24.90;99.90;;;;;;4994430;28;20410;-77
2021/07/10 10:51:29;;;;;;;5.23;4.73;;;24.90;99.90;;;;;;4994281;28;20418;-82
2021/07/10 10:54:17;;;;;;;7.13;4.90;;;25.20;99.90;;;;;;4992756;28;20425;-81
2021/07/10 10:56:44;;;;;;;4.57;4.17;;;25.10;99.90;;;;;;4990706;28;20422;-81
2021/07/10 10:59:46;;;;;;;5.00;4.60;;;25.10;99.90;;;;;;4993008;28;20414;-80
2021/07/10 11:02:24;;;;;;;5.73;4.50;;;;;;;;;;4972650;28;20429;-81
2021/07/10 11:04:56;;;;;;;5.97;4.70;;;;;;;;;;4990986;28;20485;-81
2021/07/10 11:07:23;;;;;;;4.80;4.27;;;24.90;99.90;;;;;;4993823;28;20402;-80
2021/07/10 11:10:08;;;;;;;4.50;4.03;;;25.00;99.90;;;;;;4993949;28;20425;-79
2021/07/10 11:12:46;;;;;;;6.20;5.20;;;25.50;99.90;;;;;;4993870;28;20449;-81
2021/07/10 11:15:27;;;;;;;5.43;4.73;;;25.40;99.90;;;;;;4992488;28;20461;-79
2021/07/10 11:18:12;;;;;;;4.70;4.20;;;;;;;;;;4993851;28;20813;-80
2021/07/10 11:20:45;;;;;;;4.80;4.40;;;25.90;99.90;;;;;;4993931;28;20498;-80
2021/07/10 11:23:27;;;;;;;5.73;5.20;;;25.50;99.90;;;;;;4993485;28;20425;-80
2021/07/10 11:25:55;;;;;;;4.83;4.33;;;25.40;99.90;;;;;;4993685;28;20474;-79
2021/07/10 11:28:23;;;;;;;5.77;5.20;;;25.80;99.90;;;;;;4993845;28;20411;-80
2021/07/10 11:30:55;;;;;;;6.50;4.87;;;25.30;99.90;;;;;;4992532;28;20489;-80
2021/07/10 11:33:40;;;;;;;4.97;4.40;;;;;;;;;;4993395;28;20462;-80
2021/07/10 11:36:31;;;;;;;3.80;3.50;;;24.70;99.90;;;;;;4993974;28;20410;-78
2021/07/10 11:39:00;;;;;;;5.00;3.67;;;25.10;99.90;;;;;;4993865;28;20410;-79
2021/07/10 11:41:30;;;;;;;4.00;3.60;;;25.20;99.90;;;;;;4992596;28;20509;-79
2021/07/10 11:44:16;;;;;;;5.30;3.70;;;;;;;;;;4975521;28;20462;-79
2021/07/10 11:46:58;;;;;;;4.30;4.00;;;24.90;99.90;;;;;;4993904;28;20449;-80
2021/07/10 11:49:40;;;;;;;4.37;4.07;;;;;;;;;;4993611;28;21104;-80
2021/07/10 11:52:06;;;;;;;4.47;4.03;;;24.20;99.90;;;;;;4993570;28;20369;-80
2021/07/10 11:54:34;;;;;;;4.90;4.07;;;24.20;99.90;;;;;;4992156;28;20476;-80
2021/07/10 11:57:00;;;;;;;4.30;3.90;;;24.50;99.90;;;;;;4993618;28;20421;-80
2021/07/10 11:59:26;;;;;;;4.10;3.70;;;24.40;99.90;;;;;;4976241;28;20422;-80
2021/07/10 12:01:52;;;;;;;11.83;3.83;;;24.30;99.90;;;;;;4993440;28;20472;-81
2021/07/10 12:04:17;;;;;;;4.23;3.83;;;24.30;99.90;;;;;;4993062;28;20840;-80
2021/07/10 12:06:43;;;;;;;4.43;3.97;;;24.00;99.90;;;;;;4993610;28;20179;-81
2021/07/10 12:09:09;;;;;;;4.83;4.43;;;23.70;99.90;;;;;;4993554;28;20524;-80
2021/07/10 12:11:35;;;;;;;4.67;4.13;;;23.70;99.90;;;;;;4992120;28;20183;-80
2021/07/10 12:14:08;;;;;;;5.13;3.80;;;23.90;99.90;;;;;;4992923;28;20207;-81
2021/07/10 12:16:36;;;;;;;7.33;4.33;;;23.80;99.90;;;;;;4992234;28;20446;-81
2021/07/10 12:19:03;;;;;;;5.37;4.10;;;23.90;99.90;;;;;;4992985;28;20794;-81
2021/07/10 12:21:29;;;;;;;4.57;3.83;;;;;;;;;;4997166;28;20430;-81
2021/07/10 12:23:56;;;;;;;4.17;3.80;;;;;;;;;;4996604;28;20414;-81
2021/07/10 12:26:26;;;;;;;4.87;4.37;;;23.80;99.90;;;;;;4993719;28;20426;-80
2021/07/10 12:28:54;;;;;;;5.47;4.03;;;;;;;;;;4996855;28;20414;-80
2021/07/10 12:31:35;;;;;;;5.27;4.87;;;24.00;99.90;;;;;;4997031;28;20497;-80
2021/07/10 12:34:04;;;;;;;5.13;4.50;;;23.80;99.90;;;;;;4995203;28;20441;-81
2021/07/10 12:36:38;;;;;;;3.67;3.37;;;24.20;99.90;;;;;;4995473;28;20476;-80
2021/07/10 12:39:15;;;;;;;5.17;3.83;;;24.60;99.90;;;;;;4996964;28;20418;-80
2021/07/10 12:41:51;;;;;;;3.90;3.50;;;25.20;99.90;;;;;;4995466;28;20409;-81
2021/07/10 12:44:43;;;;;;;5.27;3.50;;;25.90;99.90;;;;;;4996138;28;20468;-81
2021/07/10 12:47:14;;;;;;;5.47;3.40;;;26.40;99.90;;;;;;4996583;28;20418;-80
2021/07/10 12:49:47;;;;;;;4.77;4.10;;;26.90;99.90;;;;;;4995145;28;20419;-80
2021/07/10 12:52:22;;;;;;;7.03;4.20;;;27.30;99.90;;;;;;4995383;28;20549;-80
2021/07/10 12:54:55;;;;;;;3.50;3.20;;;27.90;99.90;;;;;;4996265;28;20438;-80
2021/07/10 12:57:22;;;;;;;5.50;3.63;;;;;;;;;;4996594;28;20422;-80
2021/07/10 13:00:18;;;;;;;4.87;3.27;;;27.90;99.90;;;;;;4996417;28;20759;-80
2021/07/10 13:03:00;;;;;;;3.20;3.00;;;27.90;99.90;;;;;;4995675;28;20782;-80
2021/07/10 13:05:39;;;;;;;3.40;3.10;;;28.30;99.90;;;;;;4995663;28;20820;-82
2021/07/10 13:08:15;;;;;;;6.83;3.60;;;28.20;99.90;;;;;;4979296;28;20430;-82
2021/07/10 13:10:45;;;;;;;3.93;3.13;;;;;;;;;;4994269;28;20418;-82
2021/07/10 13:13:11;;;;;;;3.87;3.57;;;;;;;;;;4995861;28;20460;-82
2021/07/10 13:15:42;;;;;;;3.87;3.10;;;;;;;;;;4995871;28;20942;-82
2021/07/10 13:18:12;;;;;;;3.33;3.03;;;29.70;99.90;;;;;;4995790;28;20437;-81
2021/07/10 13:20:40;;;;;;;4.17;3.70;;;29.70;99.90;;;;;;4995880;28;20468;-82
2021/07/10 13:23:06;;;;;;;4.57;3.37;;;29.70;99.90;;;;;;4995559;28;20426;-82
2021/07/10 13:25:44;;;;;;;6.27;3.33;;;29.30;99.90;;;;;;4995858;28;20470;-82
2021/07/10 13:28:26;;;;;;;3.87;3.10;;;29.30;99.90;;;;;;4994529;28;20175;-81
2021/07/10 13:30:54;;;;;;;3.77;3.23;;;;;;;;;;4994493;28;20437;-82
2021/07/10 13:33:30;;;;;;;3.80;3.50;;;29.20;99.90;;;;;;4995545;28;20761;-83
2021/07/10 13:36:08;;;;;;;4.00;3.07;;;28.80;99.90;;;;;;4995569;28;20434;-83